sensor_id;sensor_type;location;lat;lon;timestamp;temperature;humidity
13464;DHT22;6804;48.774;9.174;2023-08-20T00:02:12;25.80;99.90
13464;DHT22;6804;48.774;9.174;2023-08-20T00:04:50;25.70;99.90
13464;DHT22;6804;48.774;9.174;2023-08-20T00:07:19;25.70;99.90
13464;DHT22;6804;48.774;9.174;2023-08-20T00:09:49;25.70;99.90
13464;DHT22;6804;48.774;9.174;2023-08-20T00:12:19;25.60;99.90
13464;DHT22;6804;48.774;9.174;2023-08-20T00:14:59;25.60;99.90
13464;DHT22;6804;48.774;9.174;2023-08-20T00:17:52;25.60;99.90
13464;DHT22;6804;48.774;9.174;2023-08-20T00:20:23;25.60;99.90
13464;DHT22;6804;48.774;9.174;2023-08-20T00:22:58;25.50;99.90
13464;DHT22;6804;48.774;9.174;2023-08-20T00:25:46;25.50;99.90
13464;DHT22;6804;48.774;9.174;2023-08-20T00:28:20;25.60;99.90
13464;DHT22;6804;48.774;9.174;2023-08-20T00:30:47;25.60;99.90
13464;DHT22;6804;48.774;9.174;2023-08-20T00:33:17;25.60;99.90
13464;DHT22;6804;48.774;9.174;2023-08-20T00:35:50;25.60;99.90
13464;DHT22;6804;48.774;9.174;2023-08-20T00:38:18;25.60;99.90
13464;DHT22;6804;48.774;9.174;2023-08-20T00:40:45;25.60;99.90
13464;DHT22;6804;48.774;9.174;2023-08-20T00:43:17;25.70;99.90
13464;DHT22;6804;48.774;9.174;2023-08-20T00:45:47;25.60;99.90
13464;DHT22;6804;48.774;9.174;2023-08-20T00:48:15;25.50;99.90
13464;DHT22;6804;48.774;9.174;2023-08-20T00:50:46;25.50;99.90
13464;DHT22;6804;48.774;9.174;2023-08-20T00:53:19;25.40;99.90
13464;DHT22;6804;48.774;9.174;2023-08-20T00:55:48;25.50;99.90
13464;DHT22;6804;48.774;9.174;2023-08-20T00:58:17;25.50;99.90
13464;DHT22;6804;48.774;9.174;2023-08-20T01:00:48;25.50;99.90
13464;DHT22;6804;48.774;9.174;2023-08-20T01:03:21;25.50;99.90
13464;DHT22;6804;48.774;9.174;2023-08-20T01:05:53;25.50;99.90
13464;DHT22;6804;48.774;9.174;2023-08-20T01:08:32;25.50;99.90
13464;DHT22;6804;48.774;9.174;2023-08-20T01:11:08;25.40;99.90
13464;DHT22;6804;48.774;9.174;2023-08-20T01:13:44;25.40;99.90
13464;DHT22;6804;48.774;9.174;2023-08-20T01:16:15;25.40;99.90
13464;DHT22;6804;48.774;9.174;2023-08-20T01:21:56;25.30;99.90
13464;DHT22;6804;48.774;9.174;2023-08-20T01:24:44;25.30;99.90
13464;DHT22;6804;48.774;9.174;2023-08-20T01:27:39;25.30;99.90
13464;DHT22;6804;48.774;9.174;2023-08-20T01:30:12;25.20;99.90
13464;DHT22;6804;48.774;9.174;2023-08-20T01:32:40;25.20;99.90
13464;DHT22;6804;48.774;9.174;2023-08-20T01:35:11;25.20;99.90
13464;DHT22;6804;48.774;9.174;2023-08-20T01:37:39;25.10;99.90
13464;DHT22;6804;48.774;9.174;2023-08-20T01:40:10;25.10;99.90
13464;DHT22;6804;48.774;9.174;2023-08-20T01:42:38;25.10;99.90
13464;DHT22;6804;48.774;9.174;2023-08-20T01:45:09;25.00;99.90
13464;DHT22;6804;48.774;9.174;2023-08-20T01:47:38;24.90;99.90
13464;DHT22;6804;48.774;9.174;2023-08-20T01:50:06;24.90;99.90
13464;DHT22;6804;48.774;9.174;2023-08-20T01:52:40;24.80;99.90
13464;DHT22;6804;48.774;9.174;2023-08-20T01:55:07;24.80;99.90
13464;DHT22;6804;48.774;9.174;2023-08-20T01:57:37;24.80;99.90
13464;DHT22;6804;48.774;9.174;2023-08-20T02:00:08;24.80;99.90
13464;DHT22;6804;48.774;9.174;2023-08-20T02:02:41;24.80;99.90
13464;DHT22;6804;48.774;9.174;2023-08-20T02:05:10;24.80;99.90
13464;DHT22;6804;48.774;9.174;2023-08-20T02:07:40;24.80;99.90
13464;DHT22;6804;48.774;9.174;2023-08-20T02:10:07;24.80;99.90
13464;DHT22;6804;48.774;9.174;2023-08-20T02:12:37;24.80;99.90
13464;DHT22;6804;48.774;9.174;2023-08-20T02:15:06;24.80;99.90
13464;DHT22;6804;48.774;9.174;2023-08-20T02:17:36;24.80;99.90
13464;DHT22;6804;48.774;9.174;2023-08-20T02:20:06;24.70;99.90
13464;DHT22;6804;48.774;9.174;2023-08-20T02:22:38;24.70;99.90
13464;DHT22;6804;48.774;9.174;2023-08-20T02:25:06;24.70;99.90
13464;DHT22;6804;48.774;9.174;2023-08-20T02:27:34;24.70;99.90
13464;DHT22;6804;48.774;9.174;2023-08-20T02:30:02;24.70;99.90
13464;DHT22;6804;48.774;9.174;2023-08-20T02:32:35;24.70;99.90
13464;DHT22;6804;48.774;9.174;2023-08-20T02:35:07;24.60;99.90
13464;DHT22;6804;48.774;9.174;2023-08-20T02:37:35;24.60;99.90
13464;DHT22;6804;48.774;9.174;2023-08-20T02:40:05;24.60;99.90
13464;DHT22;6804;48.774;9.174;2023-08-20T02:42:38;24.60;99.90
13464;DHT22;6804;48.774;9.174;2023-08-20T02:45:09;24.50;99.90
13464;DHT22;6804;48.774;9.174;2023-08-20T02:47:39;24.50;99.90
13464;DHT22;6804;48.774;9.174;2023-08-20T02:50:08;24.50;99.90
13464;DHT22;6804;48.774;9.174;2023-08-20T02:52:38;24.50;99.90
13464;DHT22;6804;48.774;9.174;2023-08-20T02:55:09;24.50;99.90
13464;DHT22;6804;48.774;9.174;2023-08-20T02:57:36;24.60;99.90
13464;DHT22;6804;48.774;9.174;2023-08-20T03:00:07;24.60;99.90
13464;DHT22;6804;48.774;9.174;2023-08-20T03:02:37;24.50;99.90
13464;DHT22;6804;48.774;9.174;2023-08-20T03:05:07;24.40;99.90
13464;DHT22;6804;48.774;9.174;2023-08-20T03:07:38;24.40;99.90
13464;DHT22;6804;48.774;9.174;2023-08-20T03:10:08;24.30;99.90
13464;DHT22;6804;48.774;9.174;2023-08-20T03:12:36;24.30;99.90
13464;DHT22;6804;48.774;9.174;2023-08-20T03:15:04;24.30;99.90
13464;DHT22;6804;48.774;9.174;2023-08-20T03:17:39;24.30;99.90
13464;DHT22;6804;48.774;9.174;2023-08-20T03:20:11;24.40;99.90
13464;DHT22;6804;48.774;9.174;2023-08-20T03:22:39;24.40;99.90
13464;DHT22;6804;48.774;9.174;2023-08-20T03:25:09;24.40;99.90
13464;DHT22;6804;48.774;9.174;2023-08-20T03:27:39;24.40;99.90
13464;DHT22;6804;48.774;9.174;2023-08-20T03:30:10;24.30;99.90
13464;DHT22;6804;48.774;9.174;2023-08-20T03:32:40;24.40;99.90
13464;DHT22;6804;48.774;9.174;2023-08-20T03:35:11;24.40;99.90
13464;DHT22;6804;48.774;9.174;2023-08-20T03:37:39;24.40;99.90
13464;DHT22;6804;48.774;9.174;2023-08-20T03:40:10;24.40;99.90
13464;DHT22;6804;48.774;9.174;2023-08-20T03:42:37;24.40;99.90
13464;DHT22;6804;48.774;9.174;2023-08-20T03:45:08;24.40;99.90
13464;DHT22;6804;48.774;9.174;2023-08-20T03:47:37;24.30;99.90
13464;DHT22;6804;48.774;9.174;2023-08-20T03:50:05;24.30;99.90
13464;DHT22;6804;48.774;9.174;2023-08-20T03:52:40;24.20;99.90
13464;DHT22;6804;48.774;9.174;2023-08-20T03:55:11;24.20;99.90
13464;DHT22;6804;48.774;9.174;2023-08-20T03:57:39;24.20;99.90
13464;DHT22;6804;48.774;9.174;2023-08-20T04:00:09;24.10;99.90
13464;DHT22;6804;48.774;9.174;2023-08-20T04:02:43;24.20;99.90
13464;DHT22;6804;48.774;9.174;2023-08-20T04:05:13;24.20;99.90
13464;DHT22;6804;48.774;9.174;2023-08-20T04:07:45;24.20;99.90
13464;DHT22;6804;48.774;9.174;2023-08-20T04:10:15;24.20;99.90
13464;DHT22;6804;48.774;9.174;2023-08-20T04:12:51;24.20;99.90
13464;DHT22;6804;48.774;9.174;2023-08-20T04:18:08;24.00;99.90
13464;DHT22;6804;48.774;9.174;2023-08-20T04:20:39;24.00;99.90
13464;DHT22;6804;48.774;9.174;2023-08-20T04:23:26;24.00;99.90
13464;DHT22;6804;48.774;9.174;2023-08-20T04:26:02;23.90;99.90
13464;DHT22;6804;48.774;9.174;2023-08-20T04:28:29;23.80;99.90
13464;DHT22;6804;48.774;9.174;2023-08-20T04:30:57;23.80;99.90
13464;DHT22;6804;48.774;9.174;2023-08-20T04:33:33;23.80;99.90
13464;DHT22;6804;48.774;9.174;2023-08-20T04:36:01;23.80;99.90
13464;DHT22;6804;48.774;9.174;2023-08-20T04:38:33;23.90;99.90
13464;DHT22;6804;48.774;9.174;2023-08-20T04:41:00;23.90;99.90
13464;DHT22;6804;48.774;9.174;2023-08-20T04:43:31;23.90;99.90
13464;DHT22;6804;48.774;9.174;2023-08-20T04:45:59;24.00;99.90
13464;DHT22;6804;48.774;9.174;2023-08-20T04:48:29;24.00;99.90
13464;DHT22;6804;48.774;9.174;2023-08-20T04:50:56;24.00;99.90
13464;DHT22;6804;48.774;9.174;2023-08-20T04:53:25;24.10;99.90
13464;DHT22;6804;48.774;9.174;2023-08-20T04:55:56;24.00;99.90
13464;DHT22;6804;48.774;9.174;2023-08-20T04:58:26;24.00;99.90
13464;DHT22;6804;48.774;9.174;2023-08-20T05:00:54;24.00;99.90
13464;DHT22;6804;48.774;9.174;2023-08-20T05:03:21;24.00;99.90
13464;DHT22;6804;48.774;9.174;2023-08-20T05:06:07;24.10;99.90
13464;DHT22;6804;48.774;9.174;2023-08-20T05:08:34;24.10;99.90
13464;DHT22;6804;48.774;9.174;2023-08-20T05:11:02;24.20;99.90
13464;DHT22;6804;48.774;9.174;2023-08-20T05:13:35;24.20;99.90
13464;DHT22;6804;48.774;9.174;2023-08-20T05:16:02;24.30;99.90
13464;DHT22;6804;48.774;9.174;2023-08-20T05:18:34;24.40;99.90
13464;DHT22;6804;48.774;9.174;2023-08-20T05:21:03;24.50;99.90
13464;DHT22;6804;48.774;9.174;2023-08-20T05:23:31;24.60;99.90
13464;DHT22;6804;48.774;9.174;2023-08-20T05:26:01;24.60;99.90
13464;DHT22;6804;48.774;9.174;2023-08-20T05:28:34;24.60;99.90
13464;DHT22;6804;48.774;9.174;2023-08-20T05:31:02;24.60;99.90
13464;DHT22;6804;48.774;9.174;2023-08-20T05:33:30;24.70;99.90
13464;DHT22;6804;48.774;9.174;2023-08-20T05:36:03;24.80;99.90
13464;DHT22;6804;48.774;9.174;2023-08-20T05:38:34;25.00;99.90
13464;DHT22;6804;48.774;9.174;2023-08-20T05:41:05;25.10;99.90
13464;DHT22;6804;48.774;9.174;2023-08-20T05:43:34;25.10;99.90
13464;DHT22;6804;48.774;9.174;2023-08-20T05:46:02;25.20;99.90
13464;DHT22;6804;48.774;9.174;2023-08-20T05:48:37;25.30;99.90
13464;DHT22;6804;48.774;9.174;2023-08-20T05:51:04;25.40;99.90
13464;DHT22;6804;48.774;9.174;2023-08-20T05:53:34;25.60;99.90
13464;DHT22;6804;48.774;9.174;2023-08-20T05:56:05;25.70;99.90
13464;DHT22;6804;48.774;9.174;2023-08-20T05:58:33;25.80;99.90
13464;DHT22;6804;48.774;9.174;2023-08-20T06:01:01;26.00;99.90
13464;DHT22;6804;48.774;9.174;2023-08-20T06:03:32;26.10;99.90
13464;DHT22;6804;48.774;9.174;2023-08-20T06:05:59;26.20;99.90
13464;DHT22;6804;48.774;9.174;2023-08-20T06:08:32;26.30;99.90
13464;DHT22;6804;48.774;9.174;2023-08-20T06:10:59;26.40;99.90
13464;DHT22;6804;48.774;9.174;2023-08-20T06:13:35;26.50;99.90
13464;DHT22;6804;48.774;9.174;2023-08-20T06:16:21;26.60;99.90
13464;DHT22;6804;48.774;9.174;2023-08-20T06:18:49;26.80;99.90
13464;DHT22;6804;48.774;9.174;2023-08-20T06:21:19;26.90;99.90
13464;DHT22;6804;48.774;9.174;2023-08-20T06:23:48;27.10;99.90
13464;DHT22;6804;48.774;9.174;2023-08-20T06:26:16;27.20;99.90
13464;DHT22;6804;48.774;9.174;2023-08-20T06:28:47;27.20;99.90
13464;DHT22;6804;48.774;9.174;2023-08-20T06:31:15;26.90;99.90
13464;DHT22;6804;48.774;9.174;2023-08-20T06:33:46;27.00;99.90
13464;DHT22;6804;48.774;9.174;2023-08-20T06:36:14;27.10;99.90
13464;DHT22;6804;48.774;9.174;2023-08-20T06:38:43;27.20;99.90
13464;DHT22;6804;48.774;9.174;2023-08-20T06:41:11;27.20;99.90
13464;DHT22;6804;48.774;9.174;2023-08-20T06:43:43;27.20;99.90
13464;DHT22;6804;48.774;9.174;2023-08-20T06:46:12;27.10;99.90
13464;DHT22;6804;48.774;9.174;2023-08-20T06:48:40;27.00;99.90
13464;DHT22;6804;48.774;9.174;2023-08-20T06:51:10;27.00;99.90
13464;DHT22;6804;48.774;9.174;2023-08-20T06:53:41;27.00;99.90
13464;DHT22;6804;48.774;9.174;2023-08-20T06:56:15;27.00;99.90
13464;DHT22;6804;48.774;9.174;2023-08-20T06:58:44;27.20;99.90
13464;DHT22;6804;48.774;9.174;2023-08-20T07:01:13;27.40;99.90
13464;DHT22;6804;48.774;9.174;2023-08-20T07:03:49;27.40;99.90
13464;DHT22;6804;48.774;9.174;2023-08-20T07:06:19;27.50;99.90
13464;DHT22;6804;48.774;9.174;2023-08-20T07:08:46;27.60;99.90
13464;DHT22;6804;48.774;9.174;2023-08-20T07:11:16;27.40;99.90
13464;DHT22;6804;48.774;9.174;2023-08-20T07:13:45;27.20;99.90
13464;DHT22;6804;48.774;9.174;2023-08-20T07:16:16;27.20;99.90
13464;DHT22;6804;48.774;9.174;2023-08-20T07:18:43;27.30;99.90
13464;DHT22;6804;48.774;9.174;2023-08-20T07:21:10;27.10;99.90
13464;DHT22;6804;48.774;9.174;2023-08-20T07:23:44;27.00;99.90
13464;DHT22;6804;48.774;9.174;2023-08-20T07:26:11;26.80;99.90
13464;DHT22;6804;48.774;9.174;2023-08-20T07:29:00;26.90;99.90
13464;DHT22;6804;48.774;9.174;2023-08-20T07:31:35;27.10;99.90
13464;DHT22;6804;48.774;9.174;2023-08-20T07:34:04;27.30;99.90
13464;DHT22;6804;48.774;9.174;2023-08-20T07:36:32;27.60;99.90
13464;DHT22;6804;48.774;9.174;2023-08-20T07:39:02;28.00;99.90
13464;DHT22;6804;48.774;9.174;2023-08-20T07:41:30;28.40;99.90
13464;DHT22;6804;48.774;9.174;2023-08-20T07:43:58;28.70;99.90
13464;DHT22;6804;48.774;9.174;2023-08-20T07:46:25;28.60;99.90
13464;DHT22;6804;48.774;9.174;2023-08-20T07:48:56;28.10;99.90
13464;DHT22;6804;48.774;9.174;2023-08-20T07:51:24;27.70;99.90
13464;DHT22;6804;48.774;9.174;2023-08-20T07:53:51;27.40;99.90
13464;DHT22;6804;48.774;9.174;2023-08-20T07:56:30;27.30;99.90
13464;DHT22;6804;48.774;9.174;2023-08-20T07:58:57;27.10;99.90
13464;DHT22;6804;48.774;9.174;2023-08-20T08:01:25;27.20;99.90
13464;DHT22;6804;48.774;9.174;2023-08-20T08:03:59;27.20;99.90
13464;DHT22;6804;48.774;9.174;2023-08-20T08:06:29;27.10;99.90
13464;DHT22;6804;48.774;9.174;2023-08-20T08:08:57;27.10;99.90
13464;DHT22;6804;48.774;9.174;2023-08-20T08:11:41;27.20;99.90
13464;DHT22;6804;48.774;9.174;2023-08-20T08:14:12;27.40;99.90
13464;DHT22;6804;48.774;9.174;2023-08-20T08:16:40;27.60;99.90
13464;DHT22;6804;48.774;9.174;2023-08-20T08:19:11;27.70;99.90
13464;DHT22;6804;48.774;9.174;2023-08-20T08:21:39;27.80;99.90
13464;DHT22;6804;48.774;9.174;2023-08-20T08:24:07;28.10;99.90
13464;DHT22;6804;48.774;9.174;2023-08-20T08:26:37;28.30;99.90
13464;DHT22;6804;48.774;9.174;2023-08-20T08:29:06;28.30;99.90
13464;DHT22;6804;48.774;9.174;2023-08-20T08:31:35;28.40;99.90
13464;DHT22;6804;48.774;9.174;2023-08-20T08:34:05;28.50;99.90
13464;DHT22;6804;48.774;9.174;2023-08-20T08:36:38;28.70;99.90
13464;DHT22;6804;48.774;9.174;2023-08-20T08:39:06;29.10;99.90
13464;DHT22;6804;48.774;9.174;2023-08-20T08:41:35;29.50;99.90
13464;DHT22;6804;48.774;9.174;2023-08-20T08:44:10;29.90;99.90
13464;DHT22;6804;48.774;9.174;2023-08-20T08:46:41;30.30;99.90
13464;DHT22;6804;48.774;9.174;2023-08-20T08:49:09;30.60;99.90
13464;DHT22;6804;48.774;9.174;2023-08-20T08:51:59;30.90;99.90
13464;DHT22;6804;48.774;9.174;2023-08-20T08:54:29;31.10;99.90
13464;DHT22;6804;48.774;9.174;2023-08-20T08:57:18;30.70;99.90
13464;DHT22;6804;48.774;9.174;2023-08-20T08:59:47;30.60;99.90
13464;DHT22;6804;48.774;9.174;2023-08-20T09:02:20;30.60;99.90
13464;DHT22;6804;48.774;9.174;2023-08-20T09:04:50;30.60;99.90
13464;DHT22;6804;48.774;9.174;2023-08-20T09:07:20;30.10;99.90
13464;DHT22;6804;48.774;9.174;2023-08-20T09:09:56;29.90;99.90
13464;DHT22;6804;48.774;9.174;2023-08-20T09:12:28;29.60;99.90
13464;DHT22;6804;48.774;9.174;2023-08-20T09:15:31;29.40;99.90
13464;DHT22;6804;48.774;9.174;2023-08-20T09:18:01;29.40;99.90
13464;DHT22;6804;48.774;9.174;2023-08-20T09:20:36;29.10;99.90
13464;DHT22;6804;48.774;9.174;2023-08-20T09:23:14;28.80;99.90
13464;DHT22;6804;48.774;9.174;2023-08-20T09:25:43;28.90;99.90
13464;DHT22;6804;48.774;9.174;2023-08-20T09:28:11;28.90;99.90
13464;DHT22;6804;48.774;9.174;2023-08-20T09:30:54;29.10;99.90
13464;DHT22;6804;48.774;9.174;2023-08-20T09:33:21;29.10;99.90
13464;DHT22;6804;48.774;9.174;2023-08-20T09:35:52;29.20;99.90
13464;DHT22;6804;48.774;9.174;2023-08-20T09:38:24;29.20;99.90
13464;DHT22;6804;48.774;9.174;2023-08-20T09:40:52;29.40;99.90
13464;DHT22;6804;48.774;9.174;2023-08-20T09:43:24;29.30;99.90
13464;DHT22;6804;48.774;9.174;2023-08-20T09:45:55;29.30;99.90
13464;DHT22;6804;48.774;9.174;2023-08-20T09:48:24;29.50;99.90
13464;DHT22;6804;48.774;9.174;2023-08-20T09:50:59;29.90;99.90
13464;DHT22;6804;48.774;9.174;2023-08-20T09:53:39;30.30;99.90
13464;DHT22;6804;48.774;9.174;2023-08-20T09:56:19;30.40;99.90
13464;DHT22;6804;48.774;9.174;2023-08-20T09:58:51;30.60;99.90
13464;DHT22;6804;48.774;9.174;2023-08-20T10:01:20;30.80;99.90
13464;DHT22;6804;48.774;9.174;2023-08-20T10:03:50;30.50;99.90
13464;DHT22;6804;48.774;9.174;2023-08-20T10:06:21;30.30;99.90
13464;DHT22;6804;48.774;9.174;2023-08-20T10:08:53;30.20;99.90
13464;DHT22;6804;48.774;9.174;2023-08-20T10:11:21;30.10;99.90
13464;DHT22;6804;48.774;9.174;2023-08-20T10:14:11;30.20;99.90
13464;DHT22;6804;48.774;9.174;2023-08-20T10:16:40;30.20;99.90
13464;DHT22;6804;48.774;9.174;2023-08-20T10:19:15;30.10;99.90
13464;DHT22;6804;48.774;9.174;2023-08-20T10:21:44;30.30;99.90
13464;DHT22;6804;48.774;9.174;2023-08-20T10:24:18;30.50;99.90
13464;DHT22;6804;48.774;9.174;2023-08-20T10:27:13;30.70;99.90
13464;DHT22;6804;48.774;9.174;2023-08-20T10:29:45;31.10;99.90
13464;DHT22;6804;48.774;9.174;2023-08-20T10:32:14;31.20;99.90
13464;DHT22;6804;48.774;9.174;2023-08-20T10:34:51;31.10;99.90
13464;DHT22;6804;48.774;9.174;2023-08-20T10:37:27;31.30;99.90
13464;DHT22;6804;48.774;9.174;2023-08-20T10:39:56;31.50;99.90
13464;DHT22;6804;48.774;9.174;2023-08-20T10:42:30;31.80;99.90
13464;DHT22;6804;48.774;9.174;2023-08-20T10:45:07;32.00;99.90
13464;DHT22;6804;48.774;9.174;2023-08-20T10:47:42;31.80;99.90
13464;DHT22;6804;48.774;9.174;2023-08-20T10:50:15;31.60;99.90
13464;DHT22;6804;48.774;9.174;2023-08-20T10:52:54;31.70;99.90
13464;DHT22;6804;48.774;9.174;2023-08-20T10:55:24;31.50;99.90
13464;DHT22;6804;48.774;9.174;2023-08-20T10:57:55;31.50;99.90
13464;DHT22;6804;48.774;9.174;2023-08-20T11:00:33;31.70;99.90
13464;DHT22;6804;48.774;9.174;2023-08-20T11:03:04;31.80;99.90
13464;DHT22;6804;48.774;9.174;2023-08-20T11:05:36;31.70;99.90
13464;DHT22;6804;48.774;9.174;2023-08-20T11:08:06;31.50;99.90
13464;DHT22;6804;48.774;9.174;2023-08-20T11:10:35;31.30;99.90
13464;DHT22;6804;48.774;9.174;2023-08-20T11:13:03;31.30;99.90
13464;DHT22;6804;48.774;9.174;2023-08-20T11:15:33;31.70;99.90
13464;DHT22;6804;48.774;9.174;2023-08-20T11:18:05;31.80;99.90
13464;DHT22;6804;48.774;9.174;2023-08-20T11:20:32;32.10;99.90
13464;DHT22;6804;48.774;9.174;2023-08-20T11:23:06;32.30;99.90
13464;DHT22;6804;48.774;9.174;2023-08-20T11:25:36;32.20;99.90
13464;DHT22;6804;48.774;9.174;2023-08-20T11:28:11;32.00;99.90
13464;DHT22;6804;48.774;9.174;2023-08-20T11:30:39;31.80;99.90
13464;DHT22;6804;48.774;9.174;2023-08-20T11:33:12;31.50;99.90
13464;DHT22;6804;48.774;9.174;2023-08-20T11:35:42;31.30;99.90
13464;DHT22;6804;48.774;9.174;2023-08-20T11:38:28;31.30;99.90
13464;DHT22;6804;48.774;9.174;2023-08-20T11:40:57;31.30;99.90
13464;DHT22;6804;48.774;9.174;2023-08-20T11:43:27;31.50;99.90
13464;DHT22;6804;48.774;9.174;2023-08-20T11:45:55;31.90;99.90
13464;DHT22;6804;48.774;9.174;2023-08-20T11:48:25;31.70;99.90
13464;DHT22;6804;48.774;9.174;2023-08-20T11:50:53;32.00;99.90
13464;DHT22;6804;48.774;9.174;2023-08-20T11:53:24;32.30;99.90
13464;DHT22;6804;48.774;9.174;2023-08-20T11:55:54;32.60;99.90
13464;DHT22;6804;48.774;9.174;2023-08-20T11:58:25;32.60;99.90
13464;DHT22;6804;48.774;9.174;2023-08-20T12:00:55;32.20;99.90
13464;DHT22;6804;48.774;9.174;2023-08-20T12:03:29;32.20;99.90
13464;DHT22;6804;48.774;9.174;2023-08-20T12:05:59;32.50;99.90
13464;DHT22;6804;48.774;9.174;2023-08-20T12:08:37;32.80;99.90
13464;DHT22;6804;48.774;9.174;2023-08-20T12:11:05;33.00;99.90
13464;DHT22;6804;48.774;9.174;2023-08-20T12:13:35;33.30;99.90
13464;DHT22;6804;48.774;9.174;2023-08-20T12:16:03;33.60;99.90
13464;DHT22;6804;48.774;9.174;2023-08-20T12:18:31;33.80;99.70
13464;DHT22;6804;48.774;9.174;2023-08-20T12:21:04;34.10;99.50
13464;DHT22;6804;48.774;9.174;2023-08-20T12:23:36;34.10;98.80
13464;DHT22;6804;48.774;9.174;2023-08-20T12:26:07;34.10;98.30
13464;DHT22;6804;48.774;9.174;2023-08-20T12:28:56;33.90;98.80
13464;DHT22;6804;48.774;9.174;2023-08-20T12:31:26;33.90;98.80
13464;DHT22;6804;48.774;9.174;2023-08-20T12:33:55;34.00;98.40
13464;DHT22;6804;48.774;9.174;2023-08-20T12:36:23;33.80;98.00
13464;DHT22;6804;48.774;9.174;2023-08-20T12:38:55;33.60;98.00
13464;DHT22;6804;48.774;9.174;2023-08-20T12:41:28;33.20;98.50
13464;DHT22;6804;48.774;9.174;2023-08-20T12:43:57;33.30;99.00
13464;DHT22;6804;48.774;9.174;2023-08-20T12:46:25;33.60;98.60
13464;DHT22;6804;48.774;9.174;2023-08-20T12:48:56;33.80;97.90
13464;DHT22;6804;48.774;9.174;2023-08-20T12:51:26;34.10;97.70
13464;DHT22;6804;48.774;9.174;2023-08-20T12:53:56;34.30;97.20
13464;DHT22;6804;48.774;9.174;2023-08-20T12:56:25;34.40;96.30
13464;DHT22;6804;48.774;9.174;2023-08-20T12:58:53;34.30;95.90
13464;DHT22;6804;48.774;9.174;2023-08-20T13:01:28;33.90;96.10
13464;DHT22;6804;48.774;9.174;2023-08-20T13:03:56;33.40;96.30
13464;DHT22;6804;48.774;9.174;2023-08-20T13:06:28;33.00;97.50
13464;DHT22;6804;48.774;9.174;2023-08-20T13:08:57;33.30;97.50
13464;DHT22;6804;48.774;9.174;2023-08-20T13:11:28;33.60;97.10
13464;DHT22;6804;48.774;9.174;2023-08-20T13:14:00;34.00;96.60
13464;DHT22;6804;48.774;9.174;2023-08-20T13:16:31;34.00;96.10
13464;DHT22;6804;48.774;9.174;2023-08-20T13:19:04;34.10;95.60
13464;DHT22;6804;48.774;9.174;2023-08-20T13:21:33;33.80;95.60
13464;DHT22;6804;48.774;9.174;2023-08-20T13:24:00;33.20;96.10
13464;DHT22;6804;48.774;9.174;2023-08-20T13:26:28;32.90;96.60
13464;DHT22;6804;48.774;9.174;2023-08-20T13:28:56;32.70;96.90
13464;DHT22;6804;48.774;9.174;2023-08-20T13:31:27;32.80;97.50
13464;DHT22;6804;48.774;9.174;2023-08-20T13:33:58;33.10;97.50
13464;DHT22;6804;48.774;9.174;2023-08-20T13:36:27;33.40;97.20
13464;DHT22;6804;48.774;9.174;2023-08-20T13:38:56;33.50;96.00
13464;DHT22;6804;48.774;9.174;2023-08-20T13:41:29;33.10;95.90
13464;DHT22;6804;48.774;9.174;2023-08-20T13:43:57;32.80;96.60
13464;DHT22;6804;48.774;9.174;2023-08-20T13:46:46;32.70;96.80
13464;DHT22;6804;48.774;9.174;2023-08-20T13:49:19;32.80;97.10
13464;DHT22;6804;48.774;9.174;2023-08-20T13:51:49;33.10;96.90
13464;DHT22;6804;48.774;9.174;2023-08-20T13:54:17;33.40;96.40
13464;DHT22;6804;48.774;9.174;2023-08-20T13:56:47;33.70;96.20
13464;DHT22;6804;48.774;9.174;2023-08-20T13:59:16;33.50;96.00
13464;DHT22;6804;48.774;9.174;2023-08-20T14:01:47;33.40;96.60
13464;DHT22;6804;48.774;9.174;2023-08-20T14:04:18;33.50;96.10
13464;DHT22;6804;48.774;9.174;2023-08-20T14:06:48;33.50;96.00
13464;DHT22;6804;48.774;9.174;2023-08-20T14:09:18;33.40;96.50
13464;DHT22;6804;48.774;9.174;2023-08-20T14:11:48;33.60;96.40
13464;DHT22;6804;48.774;9.174;2023-08-20T14:14:19;33.80;96.20
13464;DHT22;6804;48.774;9.174;2023-08-20T14:17:09;34.10;96.00
13464;DHT22;6804;48.774;9.174;2023-08-20T14:19:40;34.30;95.90
13464;DHT22;6804;48.774;9.174;2023-08-20T14:22:09;34.50;95.70
13464;DHT22;6804;48.774;9.174;2023-08-20T14:24:39;34.60;95.60
13464;DHT22;6804;48.774;9.174;2023-08-20T14:27:26;34.70;95.60
13464;DHT22;6804;48.774;9.174;2023-08-20T14:29:56;34.70;95.50
13464;DHT22;6804;48.774;9.174;2023-08-20T14:32:29;34.80;95.30
13464;DHT22;6804;48.774;9.174;2023-08-20T14:35:01;34.90;95.20
13464;DHT22;6804;48.774;9.174;2023-08-20T14:37:32;34.90;95.00
13464;DHT22;6804;48.774;9.174;2023-08-20T14:39:59;34.80;94.80
13464;DHT22;6804;48.774;9.174;2023-08-20T14:42:32;34.70;94.90
13464;DHT22;6804;48.774;9.174;2023-08-20T14:45:00;34.60;95.00
13464;DHT22;6804;48.774;9.174;2023-08-20T14:47:32;34.50;95.10
13464;DHT22;6804;48.774;9.174;2023-08-20T14:50:01;34.40;95.10
13464;DHT22;6804;48.774;9.174;2023-08-20T14:52:31;34.30;94.90
13464;DHT22;6804;48.774;9.174;2023-08-20T14:54:59;34.10;95.00
13464;DHT22;6804;48.774;9.174;2023-08-20T14:57:30;34.00;95.00
13464;DHT22;6804;48.774;9.174;2023-08-20T15:00:04;33.90;94.70
13464;DHT22;6804;48.774;9.174;2023-08-20T15:02:35;33.70;94.80
13464;DHT22;6804;48.774;9.174;2023-08-20T15:05:08;33.60;95.00
13464;DHT22;6804;48.774;9.174;2023-08-20T15:07:41;33.50;95.00
13464;DHT22;6804;48.774;9.174;2023-08-20T15:10:09;33.40;95.10
13464;DHT22;6804;48.774;9.174;2023-08-20T15:12:39;33.40;95.10
13464;DHT22;6804;48.774;9.174;2023-08-20T15:15:11;33.40;95.20
13464;DHT22;6804;48.774;9.174;2023-08-20T15:17:41;33.40;95.10
13464;DHT22;6804;48.774;9.174;2023-08-20T15:20:11;33.40;95.10
13464;DHT22;6804;48.774;9.174;2023-08-20T15:22:42;33.40;95.00
13464;DHT22;6804;48.774;9.174;2023-08-20T15:25:10;33.40;95.10
13464;DHT22;6804;48.774;9.174;2023-08-20T15:27:41;33.50;94.80
13464;DHT22;6804;48.774;9.174;2023-08-20T15:30:12;33.40;94.60
13464;DHT22;6804;48.774;9.174;2023-08-20T15:32:43;33.50;94.50
13464;DHT22;6804;48.774;9.174;2023-08-20T15:35:12;33.40;94.50
13464;DHT22;6804;48.774;9.174;2023-08-20T15:37:44;33.30;94.60
13464;DHT22;6804;48.774;9.174;2023-08-20T15:40:12;33.30;94.60
13464;DHT22;6804;48.774;9.174;2023-08-20T15:42:40;33.30;94.40
13464;DHT22;6804;48.774;9.174;2023-08-20T15:45:12;33.20;94.10
13464;DHT22;6804;48.774;9.174;2023-08-20T15:47:43;33.20;94.00
13464;DHT22;6804;48.774;9.174;2023-08-20T15:50:12;33.20;93.80
13464;DHT22;6804;48.774;9.174;2023-08-20T15:52:41;33.10;93.90
13464;DHT22;6804;48.774;9.174;2023-08-20T15:55:15;33.10;93.80
13464;DHT22;6804;48.774;9.174;2023-08-20T15:57:43;33.00;94.00
13464;DHT22;6804;48.774;9.174;2023-08-20T16:00:15;33.00;94.10
13464;DHT22;6804;48.774;9.174;2023-08-20T16:02:48;33.00;94.40
13464;DHT22;6804;48.774;9.174;2023-08-20T16:05:19;33.10;94.50
13464;DHT22;6804;48.774;9.174;2023-08-20T16:07:52;33.20;94.30
13464;DHT22;6804;48.774;9.174;2023-08-20T16:10:20;33.20;93.90
13464;DHT22;6804;48.774;9.174;2023-08-20T16:13:00;33.20;94.00
13464;DHT22;6804;48.774;9.174;2023-08-20T16:15:32;33.20;93.80
13464;DHT22;6804;48.774;9.174;2023-08-20T16:18:04;33.20;93.90